createdAt,value
2022-10-23T00:03:13.122Z,67.20
2022-10-23T00:08:15.716Z,65.80
2022-10-23T00:13:19.639Z,65.80
2022-10-23T00:18:22.764Z,65.90
2022-10-23T00:23:26.209Z,65.50
2022-10-23T00:28:30.760Z,65.20
2022-10-23T00:33:35.084Z,65.20
2022-10-23T00:38:38.451Z,65.20
2022-10-23T00:43:56.272Z,66.20
2022-10-23T00:49:02.037Z,66.70
2022-10-23T00:59:28.106Z,66.50
2022-10-23T01:04:32.173Z,66.50
2022-10-23T01:09:38.574Z,66.50
2022-10-23T01:14:44.486Z,66.50
2022-10-23T01:19:52.024Z,66.60
2022-10-23T01:24:57.539Z,66.30
2022-10-23T01:30:05.835Z,66.60
2022-10-23T01:35:11.829Z,66.30
2022-10-23T01:40:19.825Z,66.40
2022-10-23T01:45:26.099Z,66.40
2022-10-23T01:50:29.576Z,66.30
2022-10-23T01:55:33.076Z,66.30
2022-10-23T02:00:37.262Z,66.00
2022-10-23T02:05:40.037Z,66.10
2022-10-23T02:10:45.097Z,66.20
2022-10-23T02:15:49.769Z,66.10
2022-10-23T02:20:54.471Z,66.20
2022-10-23T02:25:59.252Z,66.20
2022-10-23T02:31:03.938Z,66.00
2022-10-23T02:36:06.997Z,66.00
2022-10-23T02:41:17.361Z,66.10
2022-10-23T02:46:24.086Z,66.00
2022-10-23T02:51:29.870Z,65.90
2022-10-23T02:56:38.629Z,65.80
2022-10-23T03:01:45.919Z,65.70
2022-10-23T03:06:50.126Z,65.90
2022-10-23T03:11:52.722Z,65.90
2022-10-23T03:16:56.657Z,65.70
2022-10-23T03:21:59.253Z,65.70
2022-10-23T03:27:02.591Z,65.60
2022-10-23T03:32:06.624Z,65.90
2022-10-23T03:37:09.359Z,65.70
2022-10-23T03:42:11.928Z,65.60
2022-10-23T03:47:15.872Z,65.50
2022-10-23T03:52:18.496Z,65.40
2022-10-23T03:57:21.103Z,65.40
2022-10-23T04:02:25.136Z,65.30
2022-10-23T04:07:27.785Z,65.50
2022-10-23T04:12:30.436Z,65.40
2022-10-23T04:17:34.395Z,65.40
2022-10-23T04:22:37.489Z,65.20
2022-10-23T04:27:40.321Z,64.90
2022-10-23T04:32:44.327Z,64.90
2022-10-23T04:37:47.455Z,65.10
2022-10-23T04:42:50.172Z,65.30
2022-10-23T04:47:54.122Z,65.20
2022-10-23T04:52:57.816Z,65.10
2022-10-23T04:58:00.569Z,65.00
2022-10-23T05:03:04.604Z,65.10
2022-10-23T05:08:07.197Z,65.00
2022-10-23T05:13:09.857Z,64.90
2022-10-23T05:18:16.382Z,65.00
2022-10-23T05:23:20.431Z,65.10
2022-10-23T05:28:23.101Z,64.80
2022-10-23T05:33:27.245Z,65.00
2022-10-23T05:38:32.373Z,65.00
2022-10-23T05:43:34.944Z,64.80
2022-10-23T05:48:39.581Z,64.80
2022-10-23T05:53:42.563Z,65.00
2022-10-23T05:58:45.447Z,64.80
2022-10-23T06:03:49.530Z,64.90
2022-10-23T06:08:52.105Z,64.60
2022-10-23T06:13:54.765Z,64.60
2022-10-23T06:18:58.706Z,64.50
2022-10-23T06:24:01.292Z,64.60
2022-10-23T06:29:05.304Z,64.60
2022-10-23T06:34:11.680Z,64.50
2022-10-23T06:39:14.289Z,64.40
2022-10-23T06:44:16.867Z,64.40
2022-10-23T06:49:20.786Z,64.50
2022-10-23T06:54:23.446Z,64.40
2022-10-23T06:59:26.937Z,64.30
2022-10-23T07:04:30.892Z,64.50
2022-10-23T07:09:33.543Z,64.40
2022-10-23T07:14:36.238Z,64.30
2022-10-23T07:19:40.192Z,64.50
2022-10-23T07:24:44.048Z,64.30
2022-10-23T07:29:46.650Z,64.20
2022-10-23T07:34:50.655Z,64.20
2022-10-23T07:39:53.309Z,64.20
2022-10-23T07:44:55.907Z,64.20
2022-10-23T07:49:59.853Z,64.20
2022-10-23T07:55:02.480Z,64.00
2022-10-23T08:00:06.122Z,64.10
2022-10-23T08:05:11.637Z,64.10
2022-10-23T08:10:14.222Z,63.90
2022-10-23T08:15:16.917Z,64.10
2022-10-23T08:20:20.866Z,64.00
2022-10-23T08:25:25.149Z,63.90
2022-10-23T08:30:28.721Z,63.40
2022-10-23T08:35:36.114Z,63.50
2022-10-23T08:40:38.852Z,63.70
2022-10-23T08:45:45.056Z,63.70
2022-10-23T08:50:50.581Z,63.80
2022-10-23T08:55:56.289Z,63.90
2022-10-23T09:00:59.178Z,63.70
2022-10-23T09:06:08.765Z,63.80
2022-10-23T09:11:13.818Z,63.70
2022-10-23T09:16:20.475Z,63.70
2022-10-23T09:21:27.871Z,63.60
2022-10-23T09:26:30.459Z,63.60
2022-10-23T09:31:33.419Z,63.70
2022-10-23T09:36:37.342Z,63.70
2022-10-23T09:41:40.839Z,63.70
2022-10-23T09:46:44.508Z,63.70
2022-10-23T09:51:54.385Z,63.70
2022-10-23T09:56:58.369Z,63.80
2022-10-23T10:02:03.856Z,63.60
2022-10-23T10:07:17.379Z,63.50
2022-10-23T10:12:32.447Z,63.90
2022-10-23T10:17:38.766Z,63.70
2022-10-23T10:22:46.650Z,63.70
2022-10-23T10:27:55.906Z,63.80
2022-10-23T10:32:59.904Z,64.00
2022-10-23T10:38:12.363Z,64.00
2022-10-23T10:43:30.500Z,63.90
2022-10-23T10:48:42.779Z,63.90
2022-10-23T10:53:56.485Z,63.80
2022-10-23T10:59:01.318Z,64.00
2022-10-23T11:04:06.276Z,63.90
2022-10-23T11:09:20.549Z,64.00
2022-10-23T11:14:26.354Z,64.00
2022-10-23T11:19:31.118Z,63.90
2022-10-23T11:24:50.060Z,64.00
2022-10-23T11:30:02.454Z,63.90
2022-10-23T11:35:11.541Z,64.00
2022-10-23T11:40:19.407Z,64.10
2022-10-23T11:45:30.825Z,64.10
2022-10-23T11:50:34.637Z,64.00
2022-10-23T11:55:38.242Z,64.30
2022-10-23T12:00:53.151Z,64.00
2022-10-23T12:06:00.755Z,64.40
2022-10-23T12:11:03.358Z,64.00
2022-10-23T12:16:08.356Z,64.30
2022-10-23T12:21:16.365Z,64.10
2022-10-23T12:26:24.378Z,62.90
2022-10-23T12:31:31.358Z,62.70
2022-10-23T12:36:41.587Z,62.70
2022-10-23T12:41:44.264Z,62.70
2022-10-23T12:46:51.805Z,62.90
2022-10-23T12:51:58.510Z,64.10
2022-10-23T12:57:01.168Z,64.30
2022-10-23T13:02:14.396Z,64.20
2022-10-23T13:07:19.226Z,64.10
2022-10-23T13:12:24.430Z,64.20
2022-10-23T13:17:36.148Z,64.50
2022-10-23T13:22:41.389Z,64.20
2022-10-23T13:27:44.561Z,64.40
2022-10-23T13:32:48.950Z,64.60
2022-10-23T13:37:51.848Z,64.50
2022-10-23T13:42:55.707Z,64.40
2022-10-23T13:48:00.470Z,64.50
2022-10-23T13:53:05.186Z,64.70
2022-10-23T13:58:07.785Z,64.70
2022-10-23T14:03:14.489Z,64.80
2022-10-23T14:08:17.238Z,64.70
2022-10-23T14:13:19.981Z,64.70
2022-10-23T14:18:24.338Z,64.40
2022-10-23T14:23:26.908Z,64.70
2022-10-23T14:28:29.478Z,64.60
2022-10-23T14:33:33.415Z,64.50
2022-10-23T14:38:36.809Z,64.60
2022-10-23T14:43:39.570Z,64.70
2022-10-23T14:48:46.134Z,64.70
2022-10-23T14:53:57.967Z,64.70
2022-10-23T14:59:03.445Z,64.80
2022-10-23T15:04:07.414Z,64.60
2022-10-23T15:09:10.130Z,64.50
2022-10-23T15:14:12.854Z,64.80
2022-10-23T15:19:18.651Z,64.70
2022-10-23T15:24:21.753Z,64.80
2022-10-23T15:29:24.370Z,64.60
2022-10-23T15:34:29.148Z,64.80
2022-10-23T15:39:33.735Z,64.80
2022-10-23T15:44:36.376Z,64.90
2022-10-23T15:49:40.738Z,64.80
2022-10-23T15:54:43.354Z,64.90
2022-10-23T15:59:45.966Z,65.00
2022-10-23T16:04:50.029Z,64.70
2022-10-23T16:09:52.611Z,65.10
2022-10-23T16:14:55.202Z,65.00
2022-10-23T16:19:59.171Z,65.00
2022-10-23T16:25:01.813Z,64.60
2022-10-23T16:30:06.149Z,64.50
2022-10-23T16:35:13.009Z,64.60
2022-10-23T16:40:16.122Z,64.70
2022-10-23T16:45:18.847Z,64.60
2022-10-23T16:50:23.042Z,64.80
2022-10-23T16:55:25.634Z,64.90
2022-10-23T17:00:34.749Z,65.10
2022-10-23T17:05:38.694Z,65.20
2022-10-23T17:10:41.266Z,65.40
2022-10-23T17:15:43.896Z,65.50
2022-10-23T17:20:52.666Z,65.60
2022-10-23T17:25:55.570Z,65.60
2022-10-23T17:30:58.179Z,65.80
2022-10-23T17:36:03.910Z,65.80
2022-10-23T17:41:07.365Z,65.70
2022-10-23T17:46:10.730Z,65.60
2022-10-23T17:51:15.901Z,65.70
2022-10-23T17:56:19.929Z,65.80
2022-10-23T18:01:24.950Z,65.80
2022-10-23T18:06:29.882Z,65.90
2022-10-23T18:11:33.769Z,66.20
2022-10-23T18:16:37.816Z,65.90
2022-10-23T18:21:41.755Z,66.10
2022-10-23T18:26:44.891Z,66.10
2022-10-23T18:31:50.095Z,66.20
2022-10-23T18:36:54.641Z,66.30
2022-10-23T18:41:58.133Z,66.30
2022-10-23T18:47:00.806Z,66.30
2022-10-23T18:52:04.879Z,66.10
2022-10-23T18:57:07.505Z,66.50
2022-10-23T19:02:11.396Z,66.30
2022-10-23T19:07:15.451Z,66.20
2022-10-23T19:12:18.275Z,66.40
2022-10-23T19:17:22.379Z,66.20
2022-10-23T19:22:26.629Z,66.50
2022-10-23T19:27:29.606Z,66.10
2022-10-23T19:32:32.206Z,66.30
2022-10-23T19:37:36.142Z,66.30
2022-10-23T19:42:39.576Z,66.40
2022-10-23T19:47:43.055Z,66.20
2022-10-23T19:52:47.183Z,66.60
2022-10-23T19:57:49.820Z,66.40
2022-10-23T20:02:55.161Z,66.50
2022-10-23T20:07:59.403Z,66.50
2022-10-23T20:13:18.856Z,66.40
2022-10-23T20:18:22.201Z,66.50
2022-10-23T20:23:26.718Z,66.30
2022-10-23T20:28:29.306Z,66.20
2022-10-23T20:33:31.881Z,66.10
2022-10-23T20:38:36.149Z,66.10
2022-10-23T20:43:38.850Z,66.20
2022-10-23T20:48:42.535Z,66.40
2022-10-23T20:53:47.619Z,66.40
2022-10-23T20:58:50.422Z,66.70
2022-10-23T21:03:53.545Z,66.60
2022-10-23T21:08:57.721Z,66.60
2022-10-23T21:14:00.713Z,66.50
2022-10-23T21:19:04.600Z,66.50
2022-10-23T21:24:10.161Z,66.50
2022-10-23T21:29:18.472Z,66.50
2022-10-23T21:34:22.009Z,66.60
2022-10-23T21:39:26.144Z,66.60
2022-10-23T21:44:28.737Z,66.80
2022-10-23T21:49:31.330Z,66.50
2022-10-23T21:54:35.263Z,66.50
2022-10-23T21:59:37.845Z,66.90
2022-10-23T22:04:40.676Z,66.60
2022-10-23T22:09:44.781Z,66.70
2022-10-23T22:14:47.372Z,66.50
2022-10-23T22:19:49.950Z,66.70
2022-10-23T22:24:53.953Z,66.90
2022-10-23T22:29:56.937Z,66.90
2022-10-23T22:34:59.510Z,66.60
2022-10-23T22:40:03.518Z,66.80
2022-10-23T22:45:06.972Z,66.80
2022-10-23T22:50:09.798Z,66.80
2022-10-23T22:55:13.737Z,66.70
2022-10-23T23:00:16.831Z,66.90
2022-10-23T23:05:19.489Z,66.70
2022-10-23T23:10:23.675Z,67.00
2022-10-23T23:15:26.262Z,66.70
2022-10-23T23:20:28.866Z,66.80
2022-10-23T23:25:32.793Z,66.50
2022-10-23T23:30:35.444Z,66.60
2022-10-23T23:35:40.270Z,66.60
2022-10-23T23:40:50.244Z,66.80
2022-10-23T23:45:52.849Z,66.80
2022-10-23T23:50:55.425Z,66.70
2022-10-23T23:55:59.723Z,66.50
